Big Bend, Colorado
Current Conditions -  °F | °C
As of 4:53 PM on Sunday 25 Jan 2015 (Local Time) from KLAA Reporting Station
Clear Clear  
Wind Chill: 51°   Ceiling: Unl
Heat Index: 51°   Visibility: 10mi
Dew Point: 31°   Wind: 7mph
Humidity: 46%   Direction: 260°W
Pressure: 30.12"   Gusts: NA
Location:  38.1951°N, 102.726°W
Report Text: KLAA 252353Z AUTO 26006KT 10SM CLR 11/M01 A3012 RMK AO2 SLP192 T01061006 10150 20078 55000
Loading
Personal Weather Stations






























Interactive Weather Map New forecast layout! Learn more

10-Day Weather Forecast

Advertisements
Track Severe Weather on mobile